sensor_id;sensor_type;location;lat;lon;timestamp;P1;durP1;ratioP1;P2;durP2;ratioP2
73487;SDS011;61721;42.206;25.320;2022-09-27T00:01:11;4.65;;;3.33;;
73487;SDS011;61721;42.206;25.320;2022-09-27T00:03:41;6.38;;;3.85;;
73487;SDS011;61721;42.206;25.320;2022-09-27T00:06:12;5.15;;;3.53;;
73487;SDS011;61721;42.206;25.320;2022-09-27T00:08:46;6.28;;;3.75;;
73487;SDS011;61721;42.206;25.320;2022-09-27T00:11:17;5.05;;;3.42;;
73487;SDS011;61721;42.206;25.320;2022-09-27T00:13:56;6.93;;;3.88;;
73487;SDS011;61721;42.206;25.320;2022-09-27T00:16:26;7.32;;;3.85;;
73487;SDS011;61721;42.206;25.320;2022-09-27T00:18:57;7.28;;;3.90;;
73487;SDS011;61721;42.206;25.320;2022-09-27T00:21:28;6.20;;;3.63;;
73487;SDS011;61721;42.206;25.320;2022-09-27T00:24:00;5.55;;;3.85;;
73487;SDS011;61721;42.206;25.320;2022-09-27T00:26:29;5.40;;;3.70;;
73487;SDS011;61721;42.206;25.320;2022-09-27T00:28:58;6.53;;;3.80;;
73487;SDS011;61721;42.206;25.320;2022-09-27T00:31:27;5.82;;;3.72;;
73487;SDS011;61721;42.206;25.320;2022-09-27T00:33:58;7.00;;;3.83;;
73487;SDS011;61721;42.206;25.320;2022-09-27T00:36:28;5.22;;;3.67;;
73487;SDS011;61721;42.206;25.320;2022-09-27T00:39:00;6.13;;;4.00;;
73487;SDS011;61721;42.206;25.320;2022-09-27T00:41:31;5.03;;;3.78;;
73487;SDS011;61721;42.206;25.320;2022-09-27T00:44:03;5.28;;;3.75;;
73487;SDS011;61721;42.206;25.320;2022-09-27T00:46:54;5.40;;;3.85;;
73487;SDS011;61721;42.206;25.320;2022-09-27T00:49:27;5.28;;;3.60;;
73487;SDS011;61721;42.206;25.320;2022-09-27T00:52:00;5.63;;;3.90;;
73487;SDS011;61721;42.206;25.320;2022-09-27T00:54:33;5.57;;;3.90;;
73487;SDS011;61721;42.206;25.320;2022-09-27T00:57:05;5.80;;;4.00;;
73487;SDS011;61721;42.206;25.320;2022-09-27T00:59:36;5.63;;;3.67;;
73487;SDS011;61721;42.206;25.320;2022-09-27T01:02:08;4.75;;;3.67;;
73487;SDS011;61721;42.206;25.320;2022-09-27T01:04:37;6.07;;;3.78;;
73487;SDS011;61721;42.206;25.320;2022-09-27T01:07:08;5.53;;;3.83;;
73487;SDS011;61721;42.206;25.320;2022-09-27T01:09:38;7.35;;;3.90;;
73487;SDS011;61721;42.206;25.320;2022-09-27T01:12:09;7.00;;;3.58;;
73487;SDS011;61721;42.206;25.320;2022-09-27T01:14:50;7.65;;;4.18;;
73487;SDS011;61721;42.206;25.320;2022-09-27T01:17:34;5.90;;;3.95;;
73487;SDS011;61721;42.206;25.320;2022-09-27T01:20:17;7.05;;;3.88;;
73487;SDS011;61721;42.206;25.320;2022-09-27T01:23:02;5.68;;;3.63;;
73487;SDS011;61721;42.206;25.320;2022-09-27T01:25:53;5.50;;;3.80;;
73487;SDS011;61721;42.206;25.320;2022-09-27T01:28:37;8.07;;;4.10;;
73487;SDS011;61721;42.206;25.320;2022-09-27T01:31:25;5.30;;;4.00;;
73487;SDS011;61721;42.206;25.320;2022-09-27T01:34:01;7.10;;;3.92;;
73487;SDS011;61721;42.206;25.320;2022-09-27T01:36:36;5.93;;;3.80;;
73487;SDS011;61721;42.206;25.320;2022-09-27T01:39:15;6.40;;;4.10;;
73487;SDS011;61721;42.206;25.320;2022-09-27T01:41:55;6.07;;;3.75;;
73487;SDS011;61721;42.206;25.320;2022-09-27T01:44:32;6.35;;;4.30;;
73487;SDS011;61721;42.206;25.320;2022-09-27T01:47:08;5.63;;;3.63;;
73487;SDS011;61721;42.206;25.320;2022-09-27T01:49:44;6.10;;;3.70;;
73487;SDS011;61721;42.206;25.320;2022-09-27T01:52:21;5.65;;;4.50;;
73487;SDS011;61721;42.206;25.320;2022-09-27T01:54:55;7.53;;;3.63;;
73487;SDS011;61721;42.206;25.320;2022-09-27T01:57:30;7.85;;;4.20;;
73487;SDS011;61721;42.206;25.320;2022-09-27T02:00:04;4.85;;;3.65;;
73487;SDS011;61721;42.206;25.320;2022-09-27T02:02:37;7.07;;;3.65;;
73487;SDS011;61721;42.206;25.320;2022-09-27T02:05:10;5.50;;;3.53;;
73487;SDS011;61721;42.206;25.320;2022-09-27T02:07:44;6.15;;;3.90;;
73487;SDS011;61721;42.206;25.320;2022-09-27T02:10:20;7.30;;;3.65;;
73487;SDS011;61721;42.206;25.320;2022-09-27T02:12:53;6.25;;;3.80;;
73487;SDS011;61721;42.206;25.320;2022-09-27T02:15:25;7.43;;;4.20;;
73487;SDS011;61721;42.206;25.320;2022-09-27T02:18:00;5.85;;;4.38;;
73487;SDS011;61721;42.206;25.320;2022-09-27T02:20:54;5.10;;;3.50;;
73487;SDS011;61721;42.206;25.320;2022-09-27T02:23:32;6.55;;;3.75;;
73487;SDS011;61721;42.206;25.320;2022-09-27T02:26:13;6.25;;;3.78;;
73487;SDS011;61721;42.206;25.320;2022-09-27T02:28:47;5.80;;;3.85;;
73487;SDS011;61721;42.206;25.320;2022-09-27T02:31:23;5.75;;;3.90;;
73487;SDS011;61721;42.206;25.320;2022-09-27T02:33:56;6.07;;;3.97;;
73487;SDS011;61721;42.206;25.320;2022-09-27T02:36:28;6.75;;;4.47;;
73487;SDS011;61721;42.206;25.320;2022-09-27T02:38:58;5.78;;;3.67;;
73487;SDS011;61721;42.206;25.320;2022-09-27T02:41:27;5.75;;;3.72;;
73487;SDS011;61721;42.206;25.320;2022-09-27T02:43:57;5.80;;;3.80;;
73487;SDS011;61721;42.206;25.320;2022-09-27T02:46:34;7.25;;;4.00;;
73487;SDS011;61721;42.206;25.320;2022-09-27T02:49:27;5.53;;;3.90;;
73487;SDS011;61721;42.206;25.320;2022-09-27T02:52:10;6.88;;;3.92;;
73487;SDS011;61721;42.206;25.320;2022-09-27T02:54:51;5.68;;;3.95;;
73487;SDS011;61721;42.206;25.320;2022-09-27T02:57:31;5.28;;;3.83;;
73487;SDS011;61721;42.206;25.320;2022-09-27T03:00:09;5.00;;;3.67;;
73487;SDS011;61721;42.206;25.320;2022-09-27T03:02:48;6.28;;;4.00;;
73487;SDS011;61721;42.206;25.320;2022-09-27T03:05:26;4.80;;;3.40;;
73487;SDS011;61721;42.206;25.320;2022-09-27T03:07:59;5.63;;;3.97;;
73487;SDS011;61721;42.206;25.320;2022-09-27T03:10:27;5.68;;;4.28;;
73487;SDS011;61721;42.206;25.320;2022-09-27T03:12:56;6.03;;;3.72;;
73487;SDS011;61721;42.206;25.320;2022-09-27T03:15:25;4.97;;;3.65;;
73487;SDS011;61721;42.206;25.320;2022-09-27T03:17:54;5.82;;;3.58;;
73487;SDS011;61721;42.206;25.320;2022-09-27T03:20:26;5.90;;;3.83;;
73487;SDS011;61721;42.206;25.320;2022-09-27T03:22:55;5.38;;;3.85;;
73487;SDS011;61721;42.206;25.320;2022-09-27T03:25:30;5.30;;;3.67;;
73487;SDS011;61721;42.206;25.320;2022-09-27T03:28:00;6.63;;;3.60;;
73487;SDS011;61721;42.206;25.320;2022-09-27T03:30:29;6.18;;;4.00;;
73487;SDS011;61721;42.206;25.320;2022-09-27T03:32:58;7.88;;;3.90;;
73487;SDS011;61721;42.206;25.320;2022-09-27T03:35:28;6.22;;;3.58;;
73487;SDS011;61721;42.206;25.320;2022-09-27T03:37:57;5.88;;;3.67;;
73487;SDS011;61721;42.206;25.320;2022-09-27T03:40:25;5.85;;;3.40;;
73487;SDS011;61721;42.206;25.320;2022-09-27T03:42:54;6.78;;;3.95;;
73487;SDS011;61721;42.206;25.320;2022-09-27T03:45:24;7.68;;;4.00;;
73487;SDS011;61721;42.206;25.320;2022-09-27T03:47:52;6.57;;;3.60;;
73487;SDS011;61721;42.206;25.320;2022-09-27T03:50:22;6.60;;;3.50;;
73487;SDS011;61721;42.206;25.320;2022-09-27T03:52:52;5.60;;;3.92;;
73487;SDS011;61721;42.206;25.320;2022-09-27T03:55:22;6.00;;;3.53;;
73487;SDS011;61721;42.206;25.320;2022-09-27T03:57:52;5.47;;;3.47;;
73487;SDS011;61721;42.206;25.320;2022-09-27T04:00:22;5.47;;;3.40;;
73487;SDS011;61721;42.206;25.320;2022-09-27T04:02:52;6.43;;;3.88;;
73487;SDS011;61721;42.206;25.320;2022-09-27T04:05:20;6.53;;;3.75;;
73487;SDS011;61721;42.206;25.320;2022-09-27T04:07:49;5.22;;;4.10;;
73487;SDS011;61721;42.206;25.320;2022-09-27T04:10:19;10.73;;;4.15;;
73487;SDS011;61721;42.206;25.320;2022-09-27T04:12:48;5.22;;;3.50;;
73487;SDS011;61721;42.206;25.320;2022-09-27T04:15:17;5.93;;;3.95;;
73487;SDS011;61721;42.206;25.320;2022-09-27T04:17:49;4.95;;;3.58;;
73487;SDS011;61721;42.206;25.320;2022-09-27T04:20:19;7.00;;;3.72;;
73487;SDS011;61721;42.206;25.320;2022-09-27T04:22:49;5.88;;;3.70;;
73487;SDS011;61721;42.206;25.320;2022-09-27T04:25:18;5.15;;;3.85;;
73487;SDS011;61721;42.206;25.320;2022-09-27T04:27:48;7.25;;;4.20;;
73487;SDS011;61721;42.206;25.320;2022-09-27T04:30:22;6.57;;;3.75;;
73487;SDS011;61721;42.206;25.320;2022-09-27T04:32:52;5.47;;;4.03;;
73487;SDS011;61721;42.206;25.320;2022-09-27T04:35:22;6.35;;;3.78;;
73487;SDS011;61721;42.206;25.320;2022-09-27T04:38:14;5.70;;;3.95;;
73487;SDS011;61721;42.206;25.320;2022-09-27T04:40:50;5.15;;;3.47;;
73487;SDS011;61721;42.206;25.320;2022-09-27T04:43:26;7.82;;;3.72;;
73487;SDS011;61721;42.206;25.320;2022-09-27T04:45:56;9.95;;;4.10;;
73487;SDS011;61721;42.206;25.320;2022-09-27T04:48:25;9.35;;;3.90;;
73487;SDS011;61721;42.206;25.320;2022-09-27T04:50:55;6.22;;;4.03;;
73487;SDS011;61721;42.206;25.320;2022-09-27T04:53:27;6.05;;;3.83;;
73487;SDS011;61721;42.206;25.320;2022-09-27T04:56:23;6.97;;;3.67;;
73487;SDS011;61721;42.206;25.320;2022-09-27T04:58:52;5.68;;;3.67;;
73487;SDS011;61721;42.206;25.320;2022-09-27T05:01:21;5.50;;;3.65;;
73487;SDS011;61721;42.206;25.320;2022-09-27T05:03:54;5.50;;;3.70;;
73487;SDS011;61721;42.206;25.320;2022-09-27T05:06:23;7.30;;;3.88;;
73487;SDS011;61721;42.206;25.320;2022-09-27T05:08:52;7.20;;;3.67;;
73487;SDS011;61721;42.206;25.320;2022-09-27T05:11:23;5.80;;;3.40;;
73487;SDS011;61721;42.206;25.320;2022-09-27T05:13:52;5.38;;;4.03;;
73487;SDS011;61721;42.206;25.320;2022-09-27T05:16:29;7.63;;;3.80;;
73487;SDS011;61721;42.206;25.320;2022-09-27T05:19:02;5.07;;;3.75;;
73487;SDS011;61721;42.206;25.320;2022-09-27T05:21:33;5.28;;;3.42;;
73487;SDS011;61721;42.206;25.320;2022-09-27T05:24:04;9.73;;;3.78;;
73487;SDS011;61721;42.206;25.320;2022-09-27T05:26:35;9.73;;;3.90;;
73487;SDS011;61721;42.206;25.320;2022-09-27T05:29:04;8.25;;;3.53;;
73487;SDS011;61721;42.206;25.320;2022-09-27T05:31:33;8.00;;;3.78;;
73487;SDS011;61721;42.206;25.320;2022-09-27T05:34:02;6.75;;;3.38;;
73487;SDS011;61721;42.206;25.320;2022-09-27T05:36:37;6.68;;;3.40;;
73487;SDS011;61721;42.206;25.320;2022-09-27T05:39:06;5.93;;;3.53;;
73487;SDS011;61721;42.206;25.320;2022-09-27T05:41:36;6.75;;;3.42;;
73487;SDS011;61721;42.206;25.320;2022-09-27T05:44:07;4.28;;;3.05;;
73487;SDS011;61721;42.206;25.320;2022-09-27T05:46:36;5.82;;;3.50;;
73487;SDS011;61721;42.206;25.320;2022-09-27T05:49:05;8.57;;;3.58;;
73487;SDS011;61721;42.206;25.320;2022-09-27T05:51:34;5.72;;;3.50;;
73487;SDS011;61721;42.206;25.320;2022-09-27T05:54:03;5.28;;;3.35;;
73487;SDS011;61721;42.206;25.320;2022-09-27T05:56:33;6.25;;;3.00;;
73487;SDS011;61721;42.206;25.320;2022-09-27T05:59:05;5.22;;;2.83;;
73487;SDS011;61721;42.206;25.320;2022-09-27T06:01:34;6.57;;;3.33;;
73487;SDS011;61721;42.206;25.320;2022-09-27T06:04:03;6.55;;;3.08;;
73487;SDS011;61721;42.206;25.320;2022-09-27T06:06:34;7.00;;;3.17;;
73487;SDS011;61721;42.206;25.320;2022-09-27T06:09:03;6.63;;;3.08;;
73487;SDS011;61721;42.206;25.320;2022-09-27T06:11:32;4.55;;;2.85;;
73487;SDS011;61721;42.206;25.320;2022-09-27T06:14:00;5.68;;;3.00;;
73487;SDS011;61721;42.206;25.320;2022-09-27T06:16:31;5.90;;;3.03;;
73487;SDS011;61721;42.206;25.320;2022-09-27T06:19:00;7.80;;;2.70;;
73487;SDS011;61721;42.206;25.320;2022-09-27T06:21:30;4.95;;;2.80;;
73487;SDS011;61721;42.206;25.320;2022-09-27T06:23:59;6.32;;;3.63;;
73487;SDS011;61721;42.206;25.320;2022-09-27T06:26:28;4.28;;;2.80;;
73487;SDS011;61721;42.206;25.320;2022-09-27T06:28:57;5.10;;;3.22;;
73487;SDS011;61721;42.206;25.320;2022-09-27T06:31:27;5.35;;;3.10;;
73487;SDS011;61721;42.206;25.320;2022-09-27T06:33:56;5.20;;;2.95;;
73487;SDS011;61721;42.206;25.320;2022-09-27T06:36:25;6.28;;;3.50;;
73487;SDS011;61721;42.206;25.320;2022-09-27T06:38:54;5.55;;;3.30;;
73487;SDS011;61721;42.206;25.320;2022-09-27T06:41:22;9.32;;;3.20;;
73487;SDS011;61721;42.206;25.320;2022-09-27T06:43:51;4.82;;;2.92;;
73487;SDS011;61721;42.206;25.320;2022-09-27T06:46:20;4.18;;;3.00;;
73487;SDS011;61721;42.206;25.320;2022-09-27T06:48:50;5.03;;;3.13;;
73487;SDS011;61721;42.206;25.320;2022-09-27T06:51:19;5.78;;;3.05;;
73487;SDS011;61721;42.206;25.320;2022-09-27T06:53:48;4.90;;;3.22;;
73487;SDS011;61721;42.206;25.320;2022-09-27T06:56:17;5.28;;;2.88;;
73487;SDS011;61721;42.206;25.320;2022-09-27T06:58:46;5.07;;;3.20;;
73487;SDS011;61721;42.206;25.320;2022-09-27T07:01:29;6.15;;;3.03;;
73487;SDS011;61721;42.206;25.320;2022-09-27T07:03:59;5.75;;;3.00;;
73487;SDS011;61721;42.206;25.320;2022-09-27T07:06:28;5.88;;;3.50;;
73487;SDS011;61721;42.206;25.320;2022-09-27T07:08:57;7.63;;;3.10;;
73487;SDS011;61721;42.206;25.320;2022-09-27T07:11:27;6.65;;;3.28;;
73487;SDS011;61721;42.206;25.320;2022-09-27T07:13:56;4.75;;;3.40;;
73487;SDS011;61721;42.206;25.320;2022-09-27T07:16:25;4.95;;;2.90;;
73487;SDS011;61721;42.206;25.320;2022-09-27T07:18:54;6.03;;;3.30;;
73487;SDS011;61721;42.206;25.320;2022-09-27T07:21:28;7.13;;;3.20;;
73487;SDS011;61721;42.206;25.320;2022-09-27T07:23:58;4.65;;;2.95;;
73487;SDS011;61721;42.206;25.320;2022-09-27T07:26:26;4.45;;;3.00;;
73487;SDS011;61721;42.206;25.320;2022-09-27T07:28:56;5.20;;;2.80;;
73487;SDS011;61721;42.206;25.320;2022-09-27T07:31:50;6.22;;;2.95;;
73487;SDS011;61721;42.206;25.320;2022-09-27T07:34:28;7.75;;;2.88;;
73487;SDS011;61721;42.206;25.320;2022-09-27T07:36:59;5.15;;;2.72;;
73487;SDS011;61721;42.206;25.320;2022-09-27T07:39:29;6.75;;;2.90;;
73487;SDS011;61721;42.206;25.320;2022-09-27T07:41:58;4.35;;;2.92;;
73487;SDS011;61721;42.206;25.320;2022-09-27T07:44:28;6.53;;;3.30;;
73487;SDS011;61721;42.206;25.320;2022-09-27T07:46:57;5.10;;;3.08;;
73487;SDS011;61721;42.206;25.320;2022-09-27T07:49:25;5.40;;;3.15;;
73487;SDS011;61721;42.206;25.320;2022-09-27T07:51:55;5.50;;;2.75;;
73487;SDS011;61721;42.206;25.320;2022-09-27T07:56:55;4.47;;;2.53;;
73487;SDS011;61721;42.206;25.320;2022-09-27T07:59:24;4.75;;;2.65;;
73487;SDS011;61721;42.206;25.320;2022-09-27T08:01:52;6.85;;;2.80;;
73487;SDS011;61721;42.206;25.320;2022-09-27T08:04:21;6.10;;;2.58;;
73487;SDS011;61721;42.206;25.320;2022-09-27T08:06:51;6.43;;;2.58;;
73487;SDS011;61721;42.206;25.320;2022-09-27T08:09:21;5.70;;;2.45;;
73487;SDS011;61721;42.206;25.320;2022-09-27T08:11:54;7.03;;;2.72;;
73487;SDS011;61721;42.206;25.320;2022-09-27T08:14:24;5.50;;;2.53;;
73487;SDS011;61721;42.206;25.320;2022-09-27T08:16:54;4.93;;;2.58;;
73487;SDS011;61721;42.206;25.320;2022-09-27T08:19:23;4.03;;;2.13;;
73487;SDS011;61721;42.206;25.320;2022-09-27T08:21:53;7.05;;;2.10;;
73487;SDS011;61721;42.206;25.320;2022-09-27T08:24:22;6.05;;;2.25;;
73487;SDS011;61721;42.206;25.320;2022-09-27T08:26:53;5.20;;;2.00;;
73487;SDS011;61721;42.206;25.320;2022-09-27T08:29:23;5.60;;;2.20;;
73487;SDS011;61721;42.206;25.320;2022-09-27T08:31:53;5.60;;;2.13;;
73487;SDS011;61721;42.206;25.320;2022-09-27T08:34:25;3.95;;;2.15;;
73487;SDS011;61721;42.206;25.320;2022-09-27T08:36:55;4.68;;;2.00;;
73487;SDS011;61721;42.206;25.320;2022-09-27T08:39:25;5.53;;;2.22;;
73487;SDS011;61721;42.206;25.320;2022-09-27T08:41:57;4.78;;;2.10;;
73487;SDS011;61721;42.206;25.320;2022-09-27T08:44:35;4.10;;;2.03;;
73487;SDS011;61721;42.206;25.320;2022-09-27T08:47:13;4.25;;;1.65;;
73487;SDS011;61721;42.206;25.320;2022-09-27T08:49:46;4.82;;;1.90;;
73487;SDS011;61721;42.206;25.320;2022-09-27T08:52:19;4.95;;;1.90;;
73487;SDS011;61721;42.206;25.320;2022-09-27T08:54:56;5.13;;;2.00;;
73487;SDS011;61721;42.206;25.320;2022-09-27T08:57:30;4.55;;;2.20;;
73487;SDS011;61721;42.206;25.320;2022-09-27T09:00:00;6.22;;;2.13;;
73487;SDS011;61721;42.206;25.320;2022-09-27T09:02:32;4.53;;;2.13;;
73487;SDS011;61721;42.206;25.320;2022-09-27T09:05:05;4.60;;;1.90;;
73487;SDS011;61721;42.206;25.320;2022-09-27T09:07:46;5.25;;;2.03;;
73487;SDS011;61721;42.206;25.320;2022-09-27T09:10:31;5.05;;;2.10;;
73487;SDS011;61721;42.206;25.320;2022-09-27T09:13:32;5.70;;;2.10;;
73487;SDS011;61721;42.206;25.320;2022-09-27T09:16:15;6.88;;;2.28;;
73487;SDS011;61721;42.206;25.320;2022-09-27T09:18:58;4.45;;;2.30;;
73487;SDS011;61721;42.206;25.320;2022-09-27T09:21:42;6.57;;;2.38;;
73487;SDS011;61721;42.206;25.320;2022-09-27T09:24:25;6.13;;;2.13;;
73487;SDS011;61721;42.206;25.320;2022-09-27T09:27:04;4.90;;;2.28;;
73487;SDS011;61721;42.206;25.320;2022-09-27T09:32:42;6.55;;;2.40;;
73487;SDS011;61721;42.206;25.320;2022-09-27T09:35:21;5.82;;;2.13;;
73487;SDS011;61721;42.206;25.320;2022-09-27T09:37:55;5.25;;;2.17;;
73487;SDS011;61721;42.206;25.320;2022-09-27T09:40:26;5.22;;;2.20;;
73487;SDS011;61721;42.206;25.320;2022-09-27T09:43:02;7.78;;;2.10;;
73487;SDS011;61721;42.206;25.320;2022-09-27T09:45:37;5.65;;;2.30;;
73487;SDS011;61721;42.206;25.320;2022-09-27T09:48:13;5.95;;;2.00;;
73487;SDS011;61721;42.206;25.320;2022-09-27T09:50:48;4.40;;;1.90;;
73487;SDS011;61721;42.206;25.320;2022-09-27T09:53:22;5.38;;;1.83;;
73487;SDS011;61721;42.206;25.320;2022-09-27T09:56:11;5.63;;;2.00;;
73487;SDS011;61721;42.206;25.320;2022-09-27T09:58:45;8.68;;;2.15;;
73487;SDS011;61721;42.206;25.320;2022-09-27T10:01:20;5.95;;;2.10;;
73487;SDS011;61721;42.206;25.320;2022-09-27T10:03:53;7.53;;;2.10;;
73487;SDS011;61721;42.206;25.320;2022-09-27T10:06:23;4.43;;;2.03;;
73487;SDS011;61721;42.206;25.320;2022-09-27T10:08:53;5.05;;;1.80;;
73487;SDS011;61721;42.206;25.320;2022-09-27T10:11:23;4.97;;;1.90;;
73487;SDS011;61721;42.206;25.320;2022-09-27T10:13:53;6.07;;;2.10;;
73487;SDS011;61721;42.206;25.320;2022-09-27T10:16:24;3.45;;;1.60;;
73487;SDS011;61721;42.206;25.320;2022-09-27T10:18:56;4.28;;;1.77;;
73487;SDS011;61721;42.206;25.320;2022-09-27T10:21:29;4.70;;;1.60;;
73487;SDS011;61721;42.206;25.320;2022-09-27T10:26:46;4.07;;;1.70;;
73487;SDS011;61721;42.206;25.320;2022-09-27T10:29:28;3.83;;;1.67;;
73487;SDS011;61721;42.206;25.320;2022-09-27T10:32:00;5.10;;;1.90;;
73487;SDS011;61721;42.206;25.320;2022-09-27T10:34:33;5.53;;;1.90;;
73487;SDS011;61721;42.206;25.320;2022-09-27T10:37:15;4.80;;;1.80;;
73487;SDS011;61721;42.206;25.320;2022-09-27T10:39:46;3.60;;;1.52;;
73487;SDS011;61721;42.206;25.320;2022-09-27T10:42:20;3.65;;;1.70;;
73487;SDS011;61721;42.206;25.320;2022-09-27T10:44:58;2.83;;;1.50;;
73487;SDS011;61721;42.206;25.320;2022-09-27T10:47:49;5.07;;;1.63;;
73487;SDS011;61721;42.206;25.320;2022-09-27T10:50:20;5.18;;;1.70;;
73487;SDS011;61721;42.206;25.320;2022-09-27T10:53:02;6.30;;;1.50;;
73487;SDS011;61721;42.206;25.320;2022-09-27T10:55:39;3.50;;;1.70;;
73487;SDS011;61721;42.206;25.320;2022-09-27T10:58:15;3.45;;;1.77;;
73487;SDS011;61721;42.206;25.320;2022-09-27T11:00:55;5.43;;;1.75;;
73487;SDS011;61721;42.206;25.320;2022-09-27T11:03:29;4.10;;;1.70;;
73487;SDS011;61721;42.206;25.320;2022-09-27T11:06:00;3.30;;;1.60;;
73487;SDS011;61721;42.206;25.320;2022-09-27T11:08:47;3.70;;;1.70;;
73487;SDS011;61721;42.206;25.320;2022-09-27T11:11:18;4.80;;;1.65;;
73487;SDS011;61721;42.206;25.320;2022-09-27T11:13:57;5.95;;;1.90;;
73487;SDS011;61721;42.206;25.320;2022-09-27T11:16:34;3.05;;;1.80;;
73487;SDS011;61721;42.206;25.320;2022-09-27T11:19:20;4.72;;;1.90;;
73487;SDS011;61721;42.206;25.320;2022-09-27T11:22:04;3.90;;;1.75;;
73487;SDS011;61721;42.206;25.320;2022-09-27T11:28:22;6.70;;;1.90;;
73487;SDS011;61721;42.206;25.320;2022-09-27T11:30:58;4.22;;;1.75;;
73487;SDS011;61721;42.206;25.320;2022-09-27T11:33:41;4.22;;;1.80;;
73487;SDS011;61721;42.206;25.320;2022-09-27T11:38:59;4.68;;;1.63;;
73487;SDS011;61721;42.206;25.320;2022-09-27T11:44:43;4.15;;;1.70;;
73487;SDS011;61721;42.206;25.320;2022-09-27T11:47:20;3.58;;;1.73;;
73487;SDS011;61721;42.206;25.320;2022-09-27T11:53:02;4.70;;;1.40;;
73487;SDS011;61721;42.206;25.320;2022-09-27T11:55:48;6.68;;;1.77;;
73487;SDS011;61721;42.206;25.320;2022-09-27T11:58:29;5.15;;;1.80;;
73487;SDS011;61721;42.206;25.320;2022-09-27T12:01:05;4.25;;;1.70;;
73487;SDS011;61721;42.206;25.320;2022-09-27T12:03:52;3.42;;;1.70;;
73487;SDS011;61721;42.206;25.320;2022-09-27T12:06:40;4.47;;;1.80;;
73487;SDS011;61721;42.206;25.320;2022-09-27T12:09:20;3.80;;;1.30;;
73487;SDS011;61721;42.206;25.320;2022-09-27T12:11:54;4.53;;;1.80;;
73487;SDS011;61721;42.206;25.320;2022-09-27T12:14:28;4.22;;;1.77;;
73487;SDS011;61721;42.206;25.320;2022-09-27T12:17:04;3.45;;;1.40;;
73487;SDS011;61721;42.206;25.320;2022-09-27T12:22:11;4.03;;;1.73;;
73487;SDS011;61721;42.206;25.320;2022-09-27T12:24:46;7.43;;;1.75;;
73487;SDS011;61721;42.206;25.320;2022-09-27T12:27:18;2.88;;;1.42;;
73487;SDS011;61721;42.206;25.320;2022-09-27T12:29:56;7.32;;;1.73;;
73487;SDS011;61721;42.206;25.320;2022-09-27T12:32:29;3.00;;;1.40;;
73487;SDS011;61721;42.206;25.320;2022-09-27T12:35:05;4.40;;;1.50;;
73487;SDS011;61721;42.206;25.320;2022-09-27T12:37:44;3.00;;;1.42;;
73487;SDS011;61721;42.206;25.320;2022-09-27T12:40:20;3.40;;;1.60;;
73487;SDS011;61721;42.206;25.320;2022-09-27T12:42:54;4.25;;;2.15;;
73487;SDS011;61721;42.206;25.320;2022-09-27T12:48:36;3.40;;;1.40;;
73487;SDS011;61721;42.206;25.320;2022-09-27T12:51:17;3.42;;;1.58;;
73487;SDS011;61721;42.206;25.320;2022-09-27T12:53:53;3.38;;;1.40;;
73487;SDS011;61721;42.206;25.320;2022-09-27T12:56:45;6.65;;;1.90;;
73487;SDS011;61721;42.206;25.320;2022-09-27T13:02:36;4.03;;;1.45;;
73487;SDS011;61721;42.206;25.320;2022-09-27T13:05:36;4.32;;;1.55;;
73487;SDS011;61721;42.206;25.320;2022-09-27T13:08:25;4.32;;;1.48;;
73487;SDS011;61721;42.206;25.320;2022-09-27T13:11:07;4.20;;;1.83;;
73487;SDS011;61721;42.206;25.320;2022-09-27T13:14:01;3.55;;;1.70;;
73487;SDS011;61721;42.206;25.320;2022-09-27T13:16:47;3.95;;;1.80;;
73487;SDS011;61721;42.206;25.320;2022-09-27T13:19:37;4.55;;;1.80;;
73487;SDS011;61721;42.206;25.320;2022-09-27T13:22:09;4.18;;;1.90;;
73487;SDS011;61721;42.206;25.320;2022-09-27T13:31:04;4.53;;;1.98;;
73487;SDS011;61721;42.206;25.320;2022-09-27T13:33:41;4.70;;;1.75;;
73487;SDS011;61721;42.206;25.320;2022-09-27T13:36:24;6.15;;;1.80;;
73487;SDS011;61721;42.206;25.320;2022-09-27T13:41:58;3.80;;;2.10;;
73487;SDS011;61721;42.206;25.320;2022-09-27T13:44:47;5.10;;;1.90;;
73487;SDS011;61721;42.206;25.320;2022-09-27T13:47:30;6.03;;;1.60;;
73487;SDS011;61721;42.206;25.320;2022-09-27T13:50:12;5.25;;;1.75;;
73487;SDS011;61721;42.206;25.320;2022-09-27T13:52:54;3.42;;;1.40;;
73487;SDS011;61721;42.206;25.320;2022-09-27T13:55:39;3.30;;;1.50;;
73487;SDS011;61721;42.206;25.320;2022-09-27T13:58:22;4.35;;;1.55;;
73487;SDS011;61721;42.206;25.320;2022-09-27T14:01:02;4.78;;;1.90;;
73487;SDS011;61721;42.206;25.320;2022-09-27T14:03:42;3.75;;;1.80;;
73487;SDS011;61721;42.206;25.320;2022-09-27T14:06:19;4.85;;;1.65;;
73487;SDS011;61721;42.206;25.320;2022-09-27T14:08:55;6.00;;;1.70;;
73487;SDS011;61721;42.206;25.320;2022-09-27T14:11:27;4.30;;;1.55;;
73487;SDS011;61721;42.206;25.320;2022-09-27T14:14:00;3.53;;;1.88;;
73487;SDS011;61721;42.206;25.320;2022-09-27T14:16:39;3.65;;;1.75;;
73487;SDS011;61721;42.206;25.320;2022-09-27T14:19:20;5.22;;;1.67;;
73487;SDS011;61721;42.206;25.320;2022-09-27T14:21:51;5.07;;;2.17;;
73487;SDS011;61721;42.206;25.320;2022-09-27T14:24:26;11.95;;;1.95;;
73487;SDS011;61721;42.206;25.320;2022-09-27T14:27:04;4.50;;;1.85;;
73487;SDS011;61721;42.206;25.320;2022-09-27T14:29:41;3.53;;;1.63;;
73487;SDS011;61721;42.206;25.320;2022-09-27T14:32:19;5.90;;;1.70;;
73487;SDS011;61721;42.206;25.320;2022-09-27T14:38:07;4.75;;;1.52;;
73487;SDS011;61721;42.206;25.320;2022-09-27T14:40:39;5.95;;;1.30;;
73487;SDS011;61721;42.206;25.320;2022-09-27T14:43:10;4.28;;;1.60;;
73487;SDS011;61721;42.206;25.320;2022-09-27T14:45:49;4.47;;;1.60;;
73487;SDS011;61721;42.206;25.320;2022-09-27T14:48:21;3.05;;;1.38;;
73487;SDS011;61721;42.206;25.320;2022-09-27T14:53:48;5.18;;;1.30;;
73487;SDS011;61721;42.206;25.320;2022-09-27T14:56:19;5.53;;;1.60;;
73487;SDS011;61721;42.206;25.320;2022-09-27T14:58:54;4.28;;;1.70;;
73487;SDS011;61721;42.206;25.320;2022-09-27T15:01:29;4.75;;;1.40;;
73487;SDS011;61721;42.206;25.320;2022-09-27T15:04:02;4.63;;;1.10;;
73487;SDS011;61721;42.206;25.320;2022-09-27T15:06:35;4.65;;;1.30;;
73487;SDS011;61721;42.206;25.320;2022-09-27T15:09:04;6.97;;;1.30;;
73487;SDS011;61721;42.206;25.320;2022-09-27T15:11:38;3.35;;;1.30;;
73487;SDS011;61721;42.206;25.320;2022-09-27T15:14:09;3.38;;;1.30;;
73487;SDS011;61721;42.206;25.320;2022-09-27T15:16:55;4.80;;;1.20;;
73487;SDS011;61721;42.206;25.320;2022-09-27T15:19:27;4.28;;;1.77;;
73487;SDS011;61721;42.206;25.320;2022-09-27T15:22:07;6.80;;;2.00;;
73487;SDS011;61721;42.206;25.320;2022-09-27T15:25:03;5.25;;;2.28;;
73487;SDS011;61721;42.206;25.320;2022-09-27T15:27:50;12.35;;;2.00;;
73487;SDS011;61721;42.206;25.320;2022-09-27T15:30:23;4.28;;;1.40;;
73487;SDS011;61721;42.206;25.320;2022-09-27T15:32:54;5.60;;;1.45;;
73487;SDS011;61721;42.206;25.320;2022-09-27T15:35:26;4.13;;;1.33;;
73487;SDS011;61721;42.206;25.320;2022-09-27T15:38:15;3.80;;;1.40;;
73487;SDS011;61721;42.206;25.320;2022-09-27T15:40:56;5.18;;;1.88;;
73487;SDS011;61721;42.206;25.320;2022-09-27T15:43:28;6.30;;;1.50;;
73487;SDS011;61721;42.206;25.320;2022-09-27T15:45:59;3.20;;;1.40;;
73487;SDS011;61721;42.206;25.320;2022-09-27T15:48:30;3.80;;;1.30;;
73487;SDS011;61721;42.206;25.320;2022-09-27T15:51:01;5.53;;;1.50;;
73487;SDS011;61721;42.206;25.320;2022-09-27T15:53:41;5.10;;;1.27;;
73487;SDS011;61721;42.206;25.320;2022-09-27T15:56:12;4.70;;;1.35;;
73487;SDS011;61721;42.206;25.320;2022-09-27T15:58:42;3.20;;;1.30;;
73487;SDS011;61721;42.206;25.320;2022-09-27T16:01:17;5.43;;;1.23;;